Time;durP1;ratioP1;P1;durP2;ratioP2;P2;SDS_P1;SDS_P2;PMS_P1;PMS_P2;Temp;Humidity;BMP_temperature;BMP_pressure;BME280_temperature;BME280_humidity;BME280_pressure;Samples;Min_cycle;Max_cycle;Signal;HPM_P1;HPM_P2
2022/08/01 00:00:36;;;;;;;10.07;4.45;;;21.00;60.10;;;;;;5043063;28;20025;-74
2022/08/01 00:03:02;;;;;;;7.00;4.63;;;21.00;60.00;;;;;;5042711;28;20025;-76
2022/08/01 00:05:28;;;;;;;7.63;4.43;;;21.00;60.30;;;;;;5024899;28;20037;-75
2022/08/01 00:07:54;;;;;;;8.73;4.55;;;21.10;60.50;;;;;;5044220;28;20379;-75
2022/08/01 00:10:20;;;;;;;7.43;5.03;;;21.00;61.00;;;;;;5043179;28;20426;-76
2022/08/01 00:12:46;;;;;;;8.57;5.07;;;21.00;60.90;;;;;;5010987;28;20059;-77
2022/08/01 00:15:15;;;;;;;9.57;4.95;;;21.00;60.90;;;;;;5043265;28;20057;-74
2022/08/01 00:17:41;;;;;;;9.95;4.07;;;20.90;61.20;;;;;;5044791;28;20499;-75
2022/08/01 00:20:09;;;;;;;9.32;4.22;;;20.90;61.10;;;;;;5042432;28;20515;-76
2022/08/01 00:22:35;;;;;;;9.07;4.05;;;20.90;61.20;;;;;;5043183;28;20037;-76
2022/08/01 00:25:03;;;;;;;8.93;4.05;;;20.90;61.10;;;;;;5041798;28;20094;-76
2022/08/01 00:27:29;;;;;;;6.80;4.20;;;20.80;61.00;;;;;;5024920;28;20934;-78
2022/08/01 00:29:55;;;;;;;5.20;3.53;;;20.80;60.80;;;;;;5044000;28;20677;-75
2022/08/01 00:32:21;;;;;;;10.48;4.28;;;20.70;61.00;;;;;;5026260;28;20032;-77
2022/08/01 00:34:46;;;;;;;9.35;4.65;;;20.80;60.90;;;;;;5026172;28;20041;-76
2022/08/01 00:37:12;;;;;;;15.05;5.68;;;20.70;60.90;;;;;;5044029;28;20029;-76
2022/08/01 00:39:38;;;;;;;11.35;6.10;;;20.70;61.10;;;;;;5042744;28;20037;-77
2022/08/01 00:42:09;;;;;;;9.63;6.72;;;20.70;61.50;;;;;;5044695;28;20467;-76
2022/08/01 00:44:35;;;;;;;10.57;6.97;;;20.60;61.90;;;;;;5029262;28;20494;-76
2022/08/01 00:47:02;;;;;;;9.13;6.35;;;20.50;62.70;;;;;;5045014;28;20045;-77
2022/08/01 00:49:28;;;;;;;8.43;5.40;;;20.50;62.40;;;;;;5027068;28;20507;-76
2022/08/01 00:51:55;;;;;;;10.63;5.25;;;20.50;62.40;;;;;;5042155;28;20045;-77
2022/08/01 00:54:23;;;;;;;7.57;4.05;;;20.50;62.30;;;;;;5024233;28;20049;-77
2022/08/01 00:56:49;;;;;;;7.82;3.67;;;20.50;62.50;;;;;;5029821;28;20513;-77
2022/08/01 00:59:17;;;;;;;5.85;3.17;;;20.50;62.50;;;;;;5043061;28;20041;-76
2022/08/01 01:01:44;;;;;;;8.43;3.67;;;20.50;62.40;;;;;;5044233;28;20087;-77
2022/08/01 01:04:10;;;;;;;10.27;3.50;;;20.40;62.50;;;;;;5041940;28;20159;-76
2022/08/01 01:06:57;;;;;;;10.73;3.35;;;20.50;62.30;;;;;;5011802;28;20403;-76
2022/08/01 01:09:35;;;;;;;6.22;2.83;;;20.40;62.50;;;;;;5035709;28;20411;-75
2022/08/01 01:12:16;;;;;;;6.97;3.10;;;20.30;62.40;;;;;;5026923;28;20091;-76
2022/08/01 01:14:50;;;;;;;4.85;2.72;;;20.30;62.50;;;;;;5039925;28;20128;-76
2022/08/01 01:17:21;;;;;;;4.68;2.90;;;20.30;62.70;;;;;;5042823;28;20025;-75
2022/08/01 01:19:53;;;;;;;4.65;2.90;;;20.30;62.80;;;;;;5027373;28;20037;-77
2022/08/01 01:22:37;;;;;;;4.40;2.90;;;20.30;62.80;;;;;;5041625;28;20546;-76
2022/08/01 01:25:19;;;;;;;5.50;3.05;;;20.20;62.70;;;;;;5042592;28;20582;-75
2022/08/01 01:27:58;;;;;;;4.10;2.58;;;20.30;62.90;;;;;;5056609;28;20040;-75
2022/08/01 01:30:27;;;;;;;4.25;2.83;;;20.20;63.00;;;;;;5040719;28;20186;-75
2022/08/01 01:32:56;;;;;;;3.85;2.55;;;20.20;62.90;;;;;;5042359;28;20040;-75
2022/08/01 01:35:29;;;;;;;4.65;3.03;;;20.20;63.10;;;;;;5040321;28;20478;-76
2022/08/01 01:38:03;;;;;;;3.03;2.50;;;20.20;62.90;;;;;;5020934;28;20045;-76
2022/08/01 01:40:31;;;;;;;5.30;2.38;;;20.20;62.60;;;;;;5008540;28;20060;-76
2022/08/01 01:42:57;;;;;;;9.48;2.95;;;20.20;63.00;;;;;;5010043;28;20030;-76
2022/08/01 01:45:25;;;;;;;6.53;2.53;;;20.20;62.90;;;;;;5015480;28;20498;-75
2022/08/01 01:47:52;;;;;;;7.72;2.60;;;20.20;63.00;;;;;;5053608;28;20053;-76
2022/08/01 01:50:21;;;;;;;4.10;2.50;;;20.20;63.20;;;;;;5022221;28;20033;-76
2022/08/01 01:52:50;;;;;;;6.68;2.50;;;20.10;62.90;;;;;;5022207;28;20044;-77
2022/08/01 01:55:19;;;;;;;3.72;2.67;;;20.10;63.10;;;;;;5025777;28;20084;-75
2022/08/01 01:57:46;;;;;;;3.92;2.63;;;20.10;63.20;;;;;;5031771;28;20207;-75
2022/08/01 02:00:13;;;;;;;4.30;2.58;;;20.10;63.20;;;;;;5040455;28;20483;-76
2022/08/01 02:02:41;;;;;;;6.10;2.90;;;20.10;63.60;;;;;;5040643;28;20032;-75
2022/08/01 02:05:10;;;;;;;6.38;3.25;;;20.10;63.80;;;;;;5039807;28;20033;-77
2022/08/01 02:07:38;;;;;;;4.15;3.08;;;20.10;63.80;;;;;;5039495;28;20040;-76
2022/08/01 02:10:06;;;;;;;4.53;2.90;;;20.10;63.60;;;;;;5022175;28;20039;-75
2022/08/01 02:12:35;;;;;;;5.80;2.97;;;20.00;63.90;;;;;;5040979;28;20037;-76
2022/08/01 02:15:03;;;;;;;8.65;3.42;;;20.00;63.80;;;;;;5039083;28;20713;-74
2022/08/01 02:17:30;;;;;;;4.97;3.20;;;20.00;64.10;;;;;;4993699;28;20526;-74
2022/08/01 02:19:57;;;;;;;6.57;3.85;;;20.00;64.60;;;;;;5042505;28;20068;-75
2022/08/01 02:22:28;;;;;;;6.30;3.65;;;20.00;65.70;;;;;;5041423;28;20086;-75
2022/08/01 02:25:25;;;;;;;9.45;3.45;;;20.00;66.20;;;;;;5027044;28;20057;-75
2022/08/01 02:28:18;;;;;;;6.40;3.20;;;20.10;64.50;;;;;;5013053;28;20037;-75
2022/08/01 02:30:48;;;;;;;6.28;3.15;;;20.20;64.40;;;;;;5039833;28;20040;-75
2022/08/01 02:33:24;;;;;;;11.20;3.20;;;20.30;64.40;;;;;;5002188;28;20069;-74
2022/08/01 02:35:53;;;;;;;5.82;3.22;;;20.30;64.00;;;;;;5040616;28;20572;-77
2022/08/01 02:38:24;;;;;;;7.28;3.72;;;20.50;64.10;;;;;;5039222;28;20027;-77
2022/08/01 02:40:53;;;;;;;7.22;3.03;;;20.50;64.00;;;;;;5039334;28;20034;-77
2022/08/01 02:43:23;;;;;;;5.10;2.75;;;20.60;63.90;;;;;;5041306;28;20040;-76
2022/08/01 02:45:53;;;;;;;5.20;2.70;;;20.70;63.40;;;;;;5039218;28;20124;-75
2022/08/01 02:48:22;;;;;;;8.68;3.40;;;20.90;63.10;;;;;;5040216;28;20128;-75
2022/08/01 02:50:51;;;;;;;7.15;3.28;;;20.90;62.80;;;;;;5041099;28;20187;-75
2022/08/01 02:53:20;;;;;;;7.07;3.13;;;21.10;62.90;;;;;;5022162;28;20029;-76
2022/08/01 02:55:47;;;;;;;4.07;3.00;;;21.10;62.50;;;;;;5020403;28;20226;-75
2022/08/01 02:58:15;;;;;;;6.95;3.03;;;21.20;62.30;;;;;;5039403;28;20069;-76
2022/08/01 03:00:44;;;;;;;5.93;3.00;;;21.10;62.30;;;;;;5037900;28;20033;-76
2022/08/01 03:03:11;;;;;;;8.68;3.40;;;21.10;63.40;;;;;;5039369;28;20120;-76
2022/08/01 03:05:42;;;;;;;5.05;2.92;;;21.20;63.30;;;;;;5039441;28;20026;-75
2022/08/01 03:08:09;;;;;;;5.63;3.13;;;21.10;63.30;;;;;;5022725;28;20025;-77
2022/08/01 03:10:38;;;;;;;6.25;3.42;;;21.00;63.20;;;;;;5042147;28;20440;-77
2022/08/01 03:13:07;;;;;;;6.45;3.38;;;21.00;62.80;;;;;;5014600;28;20132;-77
2022/08/01 03:15:36;;;;;;;7.32;3.15;;;20.90;62.80;;;;;;5026132;28;20139;-76
2022/08/01 03:18:05;;;;;;;10.55;3.40;;;20.90;62.90;;;;;;5040141;28;20045;-76
2022/08/01 03:20:33;;;;;;;7.75;3.33;;;20.90;62.80;;;;;;5011277;28;20039;-76
2022/08/01 03:23:03;;;;;;;8.35;3.28;;;20.80;62.80;;;;;;5041873;28;20087;-76
2022/08/01 03:25:31;;;;;;;5.13;3.33;;;20.80;62.90;;;;;;5013416;28;20044;-76
2022/08/01 03:28:01;;;;;;;6.82;3.60;;;20.80;63.10;;;;;;5042439;28;20034;-75
2022/08/01 03:30:29;;;;;;;8.02;3.85;;;20.80;63.20;;;;;;5059276;28;20505;-76
2022/08/01 03:32:56;;;;;;;13.27;3.55;;;20.80;63.20;;;;;;5020893;28;20156;-76
2022/08/01 03:35:26;;;;;;;9.57;3.40;;;20.80;63.30;;;;;;5023596;28;20120;-76
2022/08/01 03:37:55;;;;;;;12.45;4.00;;;20.80;63.60;;;;;;5042637;28;20044;-78
2022/08/01 03:40:31;;;;;;;12.88;4.70;;;20.80;63.80;;;;;;5044994;28;20682;-76
2022/08/01 03:43:02;;;;;;;9.63;4.03;;;20.80;63.80;;;;;;5042755;28;20033;-75
2022/08/01 03:45:35;;;;;;;11.95;3.78;;;20.70;63.90;;;;;;5041478;28;20030;-76
2022/08/01 03:48:05;;;;;;;10.20;4.00;;;20.70;64.00;;;;;;5029081;28;20033;-75
2022/08/01 03:50:34;;;;;;;9.85;4.10;;;20.70;64.00;;;;;;5042469;28;20498;-76
2022/08/01 03:53:03;;;;;;;5.32;4.25;;;20.60;64.10;;;;;;5042553;28;20033;-75
2022/08/01 03:55:31;;;;;;;9.10;3.90;;;20.60;63.90;;;;;;5025127;28;20048;-76
2022/08/01 03:57:58;;;;;;;7.43;3.97;;;20.70;64.00;;;;;;5043537;28;20048;-76
2022/08/01 04:00:25;;;;;;;6.45;3.83;;;20.80;63.70;;;;;;5042835;28;20578;-76
2022/08/01 04:02:51;;;;;;;5.22;3.67;;;21.00;63.40;;;;;;5025833;28;20036;-78
2022/08/01 04:05:18;;;;;;;6.53;4.10;;;21.30;62.70;;;;;;5045331;28;20043;-78
2022/08/01 04:07:54;;;;;;;9.65;4.50;;;21.50;62.10;;;;;;5044084;28;20094;-75
2022/08/01 04:10:22;;;;;;;6.32;3.60;;;21.90;61.70;;;;;;5043152;28;20059;-76
2022/08/01 04:12:48;;;;;;;6.50;3.88;;;22.10;60.80;;;;;;5058047;28;20504;-77
2022/08/01 04:15:14;;;;;;;8.70;3.80;;;22.30;60.40;;;;;;5012763;28;20108;-76
2022/08/01 04:17:40;;;;;;;6.97;4.03;;;22.60;59.50;;;;;;5023465;28;20415;-76
2022/08/01 04:20:06;;;;;;;4.20;3.15;;;22.70;58.90;;;;;;5025208;28;20048;-76
2022/08/01 04:22:33;;;;;;;4.85;3.28;;;22.80;58.30;;;;;;5021048;28;20041;-76
2022/08/01 04:25:02;;;;;;;6.28;3.30;;;23.00;58.00;;;;;;5013342;28;20040;-76
2022/08/01 04:27:37;;;;;;;6.22;3.47;;;23.10;57.60;;;;;;5027812;28;20037;-76
2022/08/01 04:30:05;;;;;;;4.53;3.20;;;23.30;57.70;;;;;;5042130;28;20036;-77
2022/08/01 04:32:35;;;;;;;7.43;3.58;;;23.40;57.40;;;;;;5044117;28;20032;-80
2022/08/01 04:35:07;;;;;;;6.55;3.78;;;23.70;57.10;;;;;;5024379;28;20040;-80
2022/08/01 04:37:36;;;;;;;7.80;4.40;;;23.90;56.80;;;;;;5024330;28;20033;-80
2022/08/01 04:40:07;;;;;;;7.55;4.00;;;24.00;56.60;;;;;;5043212;28;20060;-80
2022/08/01 04:42:33;;;;;;;5.65;3.38;;;24.20;55.30;;;;;;5042878;28;20510;-82
2022/08/01 04:44:59;;;;;;;8.45;3.58;;;24.30;54.80;;;;;;5024272;28;20422;-83
2022/08/01 04:47:26;;;;;;;8.10;3.47;;;24.40;54.70;;;;;;5010714;28;20032;-81
2022/08/01 04:49:53;;;;;;;5.03;2.95;;;24.60;54.40;;;;;;5060362;28;20128;-80
2022/08/01 04:52:19;;;;;;;6.75;3.80;;;24.70;53.50;;;;;;5043011;28;20104;-80
2022/08/01 04:54:46;;;;;;;8.70;3.65;;;24.80;53.80;;;;;;5041871;28;20037;-77
2022/08/01 04:57:12;;;;;;;6.07;4.00;;;25.00;53.30;;;;;;5039662;28;20402;-76
2022/08/01 04:59:42;;;;;;;7.43;4.10;;;25.20;53.40;;;;;;5043714;28;20036;-76
2022/08/01 05:02:17;;;;;;;5.38;3.92;;;25.30;53.10;;;;;;5042139;28;20040;-76
2022/08/01 05:04:44;;;;;;;;;;;25.50;53.40;;;;;;5023681;28;20545;-75
2022/08/01 05:07:10;;;;;;;6.60;3.65;;;25.80;53.70;;;;;;5029336;28;20298;-76
2022/08/01 05:09:37;;;;;;;5.40;2.53;;;25.90;51.10;;;;;;5031782;28;20030;-76
2022/08/01 05:12:05;;;;;;;6.20;3.10;;;26.00;50.20;;;;;;5041379;28;20039;-75
2022/08/01 05:14:32;;;;;;;5.18;3.03;;;26.10;50.40;;;;;;5005837;28;20048;-75
2022/08/01 05:16:59;;;;;;;6.50;3.25;;;26.10;50.50;;;;;;5041812;28;20128;-77
2022/08/01 05:19:26;;;;;;;4.13;3.00;;;26.30;50.10;;;;;;5042938;28;20025;-76
2022/08/01 05:21:52;;;;;;;6.07;2.60;;;26.50;49.70;;;;;;5042267;28;20033;-77
2022/08/01 05:24:18;;;;;;;3.08;2.10;;;26.70;49.30;;;;;;5026839;28;20060;-77
2022/08/01 05:26:44;;;;;;;8.82;2.55;;;26.90;48.00;;;;;;5042577;28;20102;-77
2022/08/01 05:29:10;;;;;;;2.83;2.00;;;26.90;48.30;;;;;;5027776;28;20067;-77
2022/08/01 05:31:36;;;;;;;2.97;2.13;;;27.10;48.40;;;;;;5040848;28;20547;-77
2022/08/01 05:34:03;;;;;;;7.47;2.30;;;27.20;48.40;;;;;;5042587;28;20041;-77
2022/08/01 05:36:29;;;;;;;4.35;2.28;;;27.20;47.90;;;;;;5010451;28;20036;-77
2022/08/01 05:38:55;;;;;;;3.00;1.80;;;27.20;47.90;;;;;;5043017;28;20462;-78
2022/08/01 05:41:21;;;;;;;5.28;2.25;;;27.40;47.20;;;;;;5042256;28;20028;-77
2022/08/01 05:43:47;;;;;;;5.90;2.08;;;27.40;46.80;;;;;;5040158;28;20037;-77
2022/08/01 05:46:13;;;;;;;6.75;1.90;;;27.30;47.60;;;;;;5024537;28;20067;-77
2022/08/01 05:48:39;;;;;;;4.47;2.03;;;27.30;48.40;;;;;;5021388;28;20072;-78
2022/08/01 05:51:05;;;;;;;3.17;2.22;;;27.40;47.10;;;;;;5027152;28;20033;-77
2022/08/01 05:53:34;;;;;;;3.42;2.40;;;27.40;47.10;;;;;;5024088;28;20399;-77
2022/08/01 05:56:01;;;;;;;8.25;2.50;;;27.40;47.20;;;;;;5041112;28;20415;-77
2022/08/01 05:58:27;;;;;;;4.80;2.08;;;27.40;47.00;;;;;;5023770;28;20744;-77
2022/08/01 06:00:53;;;;;;;7.50;2.22;;;27.70;46.80;;;;;;5019373;28;20487;-78
2022/08/01 06:03:19;;;;;;;4.20;2.30;;;27.90;47.00;;;;;;5002562;28;20044;-78
2022/08/01 06:05:45;;;;;;;5.07;2.33;;;27.80;46.80;;;;;;5021156;28;20037;-78
2022/08/01 06:08:11;;;;;;;4.60;2.30;;;27.70;47.00;;;;;;5005764;28;20037;-78
2022/08/01 06:10:37;;;;;;;7.75;2.22;;;27.70;47.00;;;;;;5024212;28;20030;-77
2022/08/01 06:13:03;;;;;;;3.17;1.98;;;27.70;47.70;;;;;;5021550;28;20072;-78
2022/08/01 06:15:30;;;;;;;6.00;2.17;;;27.80;47.40;;;;;;5022114;28;20052;-78
2022/08/01 06:17:56;;;;;;;5.85;2.28;;;27.90;48.00;;;;;;5022840;28;20050;-78
2022/08/01 06:20:22;;;;;;;6.88;1.80;;;27.80;47.10;;;;;;5019666;28;20073;-78
2022/08/01 06:22:48;;;;;;;3.15;1.58;;;27.80;47.30;;;;;;5019846;28;20037;-77
2022/08/01 06:25:14;;;;;;;3.47;1.88;;;27.70;46.90;;;;;;5019714;28;20033;-77
2022/08/01 06:27:40;;;;;;;2.90;1.42;;;27.80;46.60;;;;;;5019238;28;20037;-78
2022/08/01 06:30:07;;;;;;;5.75;1.85;;;27.80;46.60;;;;;;5020263;28;20034;-78
2022/08/01 06:32:33;;;;;;;3.33;1.65;;;27.90;46.70;;;;;;5020537;28;20029;-78
2022/08/01 06:34:59;;;;;;;4.75;1.77;;;27.90;46.10;;;;;;5021582;28;20034;-79
2022/08/01 06:37:29;;;;;;;4.00;1.60;;;27.90;46.70;;;;;;5018866;28;20029;-79
2022/08/01 06:39:56;;;;;;;3.10;1.50;;;27.80;47.00;;;;;;5018463;28;20029;-79
2022/08/01 06:42:22;;;;;;;3.03;1.50;;;27.90;46.60;;;;;;5020350;28;20583;-79
2022/08/01 06:44:48;;;;;;;1.38;1.10;;;27.80;46.80;;;;;;5007077;28;20120;-78
2022/08/01 06:47:14;;;;;;;3.72;1.65;;;27.60;46.50;;;;;;5017029;28;20171;-78
2022/08/01 06:49:39;;;;;;;2.33;1.50;;;27.70;47.30;;;;;;5018253;28;20132;-78
2022/08/01 06:52:05;;;;;;;2.92;1.60;;;27.70;47.00;;;;;;5003261;28;20037;-78
2022/08/01 06:54:31;;;;;;;1.38;1.25;;;27.70;46.60;;;;;;5001820;28;20060;-79
2022/08/01 06:56:57;;;;;;;5.25;1.50;;;27.70;45.60;;;;;;5021316;28;20412;-77
2022/08/01 06:59:23;;;;;;;3.15;1.20;;;27.60;46.50;;;;;;5022536;28;20033;-78
2022/08/01 07:01:49;;;;;;;4.18;1.50;;;27.70;46.90;;;;;;5039329;28;20304;-78
2022/08/01 07:04:15;;;;;;;1.60;1.48;;;27.70;46.20;;;;;;5040475;28;20041;-78
2022/08/01 07:06:41;;;;;;;3.88;1.75;;;27.70;47.30;;;;;;5037844;28;20415;-77
2022/08/01 07:09:07;;;;;;;3.70;1.40;;;27.90;46.80;;;;;;5023025;28;20112;-77
2022/08/01 07:11:33;;;;;;;4.88;2.05;;;27.90;46.10;;;;;;5017861;28;20433;-77
2022/08/01 07:14:00;;;;;;;2.60;1.88;;;28.00;45.20;;;;;;5019259;28;20058;-80
2022/08/01 07:16:25;;;;;;;3.83;1.70;;;28.00;45.20;;;;;;5022041;28;20030;-78
2022/08/01 07:18:51;;;;;;;3.13;1.70;;;28.00;45.10;;;;;;5017249;28;20036;-78
2022/08/01 07:21:17;;;;;;;6.93;1.92;;;27.90;45.40;;;;;;5001414;28;20034;-79
2022/08/01 07:23:43;;;;;;;4.80;1.90;;;27.80;45.50;;;;;;5006623;28;20021;-79
2022/08/01 07:26:09;;;;;;;4.38;1.88;;;27.60;45.70;;;;;;5020035;28;20108;-79
2022/08/01 07:28:35;;;;;;;2.95;1.52;;;27.60;45.90;;;;;;5022356;28;20034;-79
2022/08/01 07:31:01;;;;;;;3.95;1.90;;;27.60;45.90;;;;;;5022705;28;20556;-78
2022/08/01 07:33:27;;;;;;;4.32;2.03;;;27.60;46.60;;;;;;5021492;28;20133;-80
2022/08/01 07:35:53;;;;;;;4.28;2.13;;;27.60;46.20;;;;;;5018583;28;20096;-78
2022/08/01 07:38:19;;;;;;;3.72;2.20;;;27.60;46.70;;;;;;5019119;28;20026;-80
2022/08/01 07:40:45;;;;;;;3.05;1.90;;;27.60;46.80;;;;;;5017397;28;20037;-80
2022/08/01 07:43:11;;;;;;;3.95;1.65;;;27.50;46.70;;;;;;5002452;28;20045;-90
2022/08/01 07:45:37;;;;;;;9.35;2.30;;;27.50;47.10;;;;;;4991712;28;20033;-82
2022/08/01 07:48:04;;;;;;;3.88;1.67;;;27.60;48.10;;;;;;5021006;28;20037;-80
2022/08/01 07:50:31;;;;;;;2.10;1.40;;;27.60;47.60;;;;;;5020755;28;20389;-84
2022/08/01 07:52:57;;;;;;;6.45;1.50;;;27.60;46.80;;;;;;5020335;28;20040;-80
2022/08/01 07:55:23;;;;;;;3.58;1.20;;;27.50;47.00;;;;;;5003177;28;20504;-79
2022/08/01 07:57:49;;;;;;;2.17;1.48;;;27.50;45.70;;;;;;4993952;28;20037;-80
2022/08/01 08:00:15;;;;;;;3.92;1.75;;;27.30;47.10;;;;;;5027681;28;20038;-78
2022/08/01 08:02:41;;;;;;;3.15;1.75;;;27.40;48.60;;;;;;5010071;28;20465;-80
2022/08/01 08:05:08;;;;;;;2.80;1.10;;;27.40;47.10;;;;;;5024180;28;20033;-79
2022/08/01 08:07:34;;;;;;;1.63;1.38;;;27.40;46.30;;;;;;5030831;28;20481;-80
2022/08/01 08:10:00;;;;;;;3.40;1.33;;;27.30;46.30;;;;;;5026968;28;20048;-78
2022/08/01 08:12:26;;;;;;;3.08;1.27;;;27.30;45.90;;;;;;5024217;28;20045;-79
2022/08/01 08:14:52;;;;;;;4.00;1.20;;;27.20;46.50;;;;;;5020448;28;20140;-79
2022/08/01 08:17:18;;;;;;;2.45;1.25;;;27.20;46.90;;;;;;5024663;28;20033;-79
2022/08/01 08:19:44;;;;;;;4.00;1.08;;;27.20;47.00;;;;;;5023196;28;20110;-79
2022/08/01 08:22:10;;;;;;;2.75;1.20;;;27.20;47.30;;;;;;5027525;28;20040;-80
2022/08/01 08:24:37;;;;;;;3.78;1.30;;;27.20;48.20;;;;;;5022031;28;20091;-78
2022/08/01 08:27:03;;;;;;;2.25;1.38;;;27.30;48.40;;;;;;5031725;28;20044;-79
2022/08/01 08:29:32;;;;;;;3.90;1.35;;;27.30;46.70;;;;;;5028226;28;20029;-85
2022/08/01 08:32:00;;;;;;;5.97;1.63;;;27.30;46.00;;;;;;5013453;28;20042;-79
2022/08/01 08:34:26;;;;;;;2.25;1.42;;;27.20;46.70;;;;;;5013272;28;20034;-76
2022/08/01 08:36:54;;;;;;;3.72;1.58;;;27.20;45.90;;;;;;5029421;28;20026;-76
2022/08/01 08:39:21;;;;;;;1.73;1.00;;;27.10;46.70;;;;;;5026361;28;20034;-78
2022/08/01 08:41:48;;;;;;;4.35;1.60;;;27.10;47.40;;;;;;5034121;28;20040;-78
2022/08/01 08:44:14;;;;;;;5.53;1.25;;;27.10;47.10;;;;;;5029919;28;20033;-78
2022/08/01 08:46:46;;;;;;;2.55;1.45;;;27.10;46.80;;;;;;5044399;28;20046;-77
2022/08/01 08:49:17;;;;;;;1.38;1.10;;;27.10;46.70;;;;;;5032750;28;20049;-77
2022/08/01 08:51:46;;;;;;;2.53;1.60;;;27.00;45.50;;;;;;5034351;28;20129;-77
2022/08/01 08:54:13;;;;;;;2.47;1.50;;;27.00;45.90;;;;;;5030175;28;20046;-77
2022/08/01 08:56:40;;;;;;;1.35;1.17;;;27.00;46.70;;;;;;5029696;28;20026;-79
2022/08/01 08:59:05;;;;;;;1.90;1.50;;;26.90;45.50;;;;;;5034243;28;20045;-77
2022/08/01 09:01:33;;;;;;;1.90;1.30;;;26.80;45.40;;;;;;5033965;28;20045;-80
2022/08/01 09:03:59;;;;;;;3.88;1.67;;;26.80;46.10;;;;;;5032976;28;20059;-77
2022/08/01 09:06:25;;;;;;;1.65;1.30;;;26.70;46.50;;;;;;5030284;28;20057;-78
2022/08/01 09:08:51;;;;;;;4.22;1.30;;;26.70;46.00;;;;;;5005210;28;20085;-78
2022/08/01 09:11:17;;;;;;;2.42;1.45;;;26.60;46.10;;;;;;5030391;28;20033;-78
2022/08/01 09:14:01;;;;;;;1.95;1.42;;;26.60;45.60;;;;;;5011909;28;20070;-79
2022/08/01 09:16:27;;;;;;;2.30;1.45;;;26.60;45.90;;;;;;5027862;28;20136;-79
2022/08/01 09:18:53;;;;;;;4.15;1.73;;;26.60;47.00;;;;;;5024479;28;20533;-79
2022/08/01 09:21:22;;;;;;;4.30;1.50;;;26.60;46.50;;;;;;5032151;28;20577;-79
2022/08/01 09:23:54;;;;;;;2.10;1.38;;;26.60;46.60;;;;;;5029499;28;20080;-81
2022/08/01 09:26:28;;;;;;;2.35;1.50;;;26.60;46.40;;;;;;5010866;28;20080;-79
2022/08/01 09:28:54;;;;;;;;;;;26.60;46.70;;;;;;5016980;28;20517;-84
2022/08/01 09:31:20;;;;;;;4.20;1.60;;;26.50;45.90;;;;;;5038533;28;19960;-90
2022/08/01 09:33:52;;;;;;;4.50;1.45;;;26.50;46.00;;;;;;5022479;28;20046;-80
2022/08/01 09:36:19;;;;;;;1.98;1.10;;;26.50;46.50;;;;;;5022516;28;20046;-78
2022/08/01 09:38:45;;;;;;;3.22;1.48;;;26.50;46.50;;;;;;5022269;28;20033;-79
2022/08/01 09:41:11;;;;;;;2.55;1.38;;;26.50;47.50;;;;;;5009181;28;20328;-79
2022/08/01 09:43:38;;;;;;;2.25;1.55;;;26.40;47.70;;;;;;5021171;28;20553;-78
2022/08/01 09:46:13;;;;;;;3.13;1.40;;;26.50;48.20;;;;;;5021093;28;20128;-78
2022/08/01 09:49:04;;;;;;;6.38;1.90;;;26.50;47.80;;;;;;5021803;28;20042;-79
2022/08/01 09:51:30;;;;;;;4.80;1.80;;;26.60;48.70;;;;;;5021883;28;20065;-78
2022/08/01 09:53:56;;;;;;;4.00;1.75;;;26.60;49.30;;;;;;5021801;28;20061;-78
2022/08/01 09:56:22;;;;;;;2.33;1.50;;;26.60;48.20;;;;;;5023359;28;20038;-78
2022/08/01 09:58:59;;;;;;;4.55;1.42;;;26.60;48.50;;;;;;5008141;28;20415;-78
2022/08/01 10:01:26;;;;;;;1.60;1.50;;;26.50;48.70;;;;;;5021706;28;20094;-78
2022/08/01 10:04:19;;;;;;;3.55;1.63;;;26.50;47.30;;;;;;5022102;28;20041;-79
2022/08/01 10:06:52;;;;;;;4.95;1.60;;;26.40;47.10;;;;;;5020634;28;20025;-78
2022/08/01 10:09:35;;;;;;;2.45;1.90;;;26.30;47.50;;;;;;5020857;28;20025;-78
2022/08/01 10:12:02;;;;;;;2.88;1.58;;;26.40;48.40;;;;;;5021230;28;20124;-78
2022/08/01 10:14:29;;;;;;;1.98;1.48;;;26.40;47.50;;;;;;5024615;28;20569;-78
2022/08/01 10:16:57;;;;;;;5.78;1.88;;;26.40;48.40;;;;;;5040242;28;20045;-78
2022/08/01 10:19:27;;;;;;;3.55;1.50;;;26.40;48.90;;;;;;5040554;28;20466;-77
2022/08/01 10:21:54;;;;;;;4.03;1.55;;;26.60;48.70;;;;;;5040636;28;20120;-78
2022/08/01 10:24:21;;;;;;;4.15;1.80;;;26.60;47.70;;;;;;5042312;28;20040;-78
2022/08/01 10:27:15;;;;;;;2.22;1.70;;;26.60;48.00;;;;;;5040790;28;20576;-77
2022/08/01 10:29:48;;;;;;;2.75;1.45;;;26.70;49.00;;;;;;5008950;28;20151;-78
2022/08/01 10:32:14;;;;;;;3.75;1.92;;;26.70;49.10;;;;;;5042159;28;20083;-78
2022/08/01 10:34:41;;;;;;;1.75;1.65;;;26.70;49.10;;;;;;5027651;28;20072;-81
2022/08/01 10:37:07;;;;;;;2.05;1.73;;;26.70;48.10;;;;;;5036441;28;20419;-84
2022/08/01 10:39:34;;;;;;;1.60;1.50;;;26.70;47.80;;;;;;5040412;28;20119;-83
2022/08/01 10:42:01;;;;;;;4.53;1.80;;;26.70;48.20;;;;;;5006328;28;20414;-82
2022/08/01 10:44:29;;;;;;;3.00;1.60;;;26.70;49.10;;;;;;5042628;28;20052;-88
2022/08/01 10:47:05;;;;;;;4.90;1.80;;;26.80;49.40;;;;;;5042013;28;20037;-85
2022/08/01 10:49:36;;;;;;;6.75;2.08;;;26.80;49.70;;;;;;5040465;28;20044;-87
2022/08/01 10:52:02;;;;;;;4.68;1.98;;;26.70;50.10;;;;;;5041169;28;20037;-92
2022/08/01 10:54:28;;;;;;;3.80;1.77;;;26.70;50.00;;;;;;5046579;28;20407;-88
2022/08/01 10:56:59;;;;;;;2.40;2.00;;;26.70;49.50;;;;;;4996133;28;20503;-87
2022/08/01 10:59:29;;;;;;;5.43;2.22;;;26.80;49.30;;;;;;5026871;28;20036;-88
2022/08/01 11:01:58;;;;;;;6.72;2.00;;;26.70;49.90;;;;;;5048280;28;20038;-93
2022/08/01 11:04:40;;;;;;;10.52;2.40;;;26.80;48.70;;;;;;5022585;28;20083;-81
2022/08/01 11:07:11;;;;;;;3.42;1.90;;;26.80;49.60;;;;;;5039509;28;20072;-84
2022/08/01 11:09:47;;;;;;;2.03;1.60;;;26.70;48.30;;;;;;5025232;28;20091;-83
2022/08/01 11:12:17;;;;;;;3.67;1.55;;;26.70;47.10;;;;;;5029696;28;20068;-83
2022/08/01 11:14:58;;;;;;;4.55;1.90;;;26.80;44.50;;;;;;5024571;28;20717;-81
2022/08/01 11:17:34;;;;;;;3.80;1.60;;;26.70;44.80;;;;;;5040651;28;20039;-84
2022/08/01 11:20:13;;;;;;;3.35;1.85;;;26.70;44.80;;;;;;5027981;28;20036;-81
2022/08/01 11:23:00;;;;;;;3.30;1.83;;;26.60;44.70;;;;;;5038705;28;20033;-82
2022/08/01 11:25:35;;;;;;;4.60;2.13;;;26.60;45.30;;;;;;5006568;28;20513;-82
2022/08/01 11:28:13;;;;;;;2.45;1.90;;;26.40;45.00;;;;;;5040356;28;20338;-83
2022/08/01 11:31:11;;;;;;;3.65;1.83;;;26.30;45.20;;;;;;5040891;28;20120;-82
2022/08/01 11:36:12;;;;;;;6.53;2.03;;;26.20;45.50;;;;;;5009959;28;20515;-82
2022/08/01 11:38:57;;;;;;;2.47;1.98;;;26.20;45.20;;;;;;5042284;28;20039;-83
2022/08/01 11:41:26;;;;;;;5.95;2.13;;;26.00;45.20;;;;;;5026812;28;20094;-81
2022/08/01 11:44:14;;;;;;;5.38;2.03;;;26.10;45.70;;;;;;5045600;28;20453;-82
2022/08/01 11:46:53;;;;;;;2.15;1.48;;;26.20;45.50;;;;;;5044188;28;20033;-81
2022/08/01 11:49:39;;;;;;;5.65;2.10;;;26.20;46.50;;;;;;5043272;28;20033;-81
2022/08/01 11:52:11;;;;;;;4.03;1.60;;;26.20;45.10;;;;;;5042929;28;20033;-81
2022/08/01 11:54:48;;;;;;;5.88;2.00;;;26.30;44.80;;;;;;5026273;28;20542;-83
2022/08/01 11:57:20;;;;;;;2.38;1.80;;;26.30;45.90;;;;;;5042608;28;20040;-84
2022/08/01 11:59:49;;;;;;;2.88;2.20;;;26.20;46.50;;;;;;5023525;28;20172;-82
2022/08/01 12:02:19;;;;;;;4.97;1.55;;;26.20;47.10;;;;;;5027471;28;20461;-83
2022/08/01 12:05:06;;;;;;;2.05;1.70;;;26.20;46.30;;;;;;5042180;28;20087;-83
2022/08/01 12:07:33;;;;;;;2.63;2.10;;;26.20;46.30;;;;;;5042618;28;20044;-81
2022/08/01 12:10:04;;;;;;;6.38;1.98;;;26.20;45.70;;;;;;5024732;28;20040;-82
2022/08/01 12:12:32;;;;;;;2.47;1.60;;;26.20;45.60;;;;;;5041038;28;20438;-82
2022/08/01 12:15:04;;;;;;;3.00;2.10;;;26.20;46.00;;;;;;5043937;28;20048;-83
2022/08/01 12:17:36;;;;;;;4.82;2.30;;;26.20;45.80;;;;;;5043355;28;20029;-82
2022/08/01 12:20:04;;;;;;;4.03;2.05;;;26.20;45.00;;;;;;5041220;28;20052;-83
2022/08/01 12:22:31;;;;;;;6.15;2.10;;;26.20;46.10;;;;;;5042493;28;20048;-83
2022/08/01 12:25:05;;;;;;;2.13;1.50;;;26.20;45.70;;;;;;5041871;28;20037;-82
2022/08/01 12:27:31;;;;;;;2.90;1.85;;;26.20;45.60;;;;;;5040743;28;20028;-83
2022/08/01 12:29:58;;;;;;;3.78;1.50;;;26.20;45.50;;;;;;5024357;28;20037;-83
2022/08/01 12:32:30;;;;;;;2.00;1.77;;;26.30;45.80;;;;;;5043697;28;20058;-81
2022/08/01 12:35:11;;;;;;;3.72;2.00;;;26.30;46.40;;;;;;5023423;28;20056;-83
2022/08/01 12:37:38;;;;;;;2.30;1.65;;;26.30;46.10;;;;;;5042525;28;20040;-82
2022/08/01 12:40:20;;;;;;;2.03;1.45;;;26.30;45.70;;;;;;5043960;28;20041;-81
2022/08/01 12:42:48;;;;;;;1.67;1.58;;;26.30;45.80;;;;;;5042014;28;20037;-81
2022/08/01 12:45:17;;;;;;;6.60;2.58;;;26.30;46.60;;;;;;5044352;28;20069;-83
2022/08/01 12:47:43;;;;;;;2.38;1.80;;;26.30;46.80;;;;;;5030212;28;20415;-83
2022/08/01 12:50:18;;;;;;;3.20;1.90;;;26.40;45.90;;;;;;5044019;28;20029;-81
2022/08/01 12:52:44;;;;;;;5.90;2.00;;;26.40;44.40;;;;;;5043091;28;20091;-81
2022/08/01 12:55:24;;;;;;;2.55;2.17;;;26.40;44.90;;;;;;5049163;28;20124;-89
2022/08/01 12:58:02;;;;;;;4.05;2.10;;;26.40;45.10;;;;;;5051191;28;20059;-83
2022/08/01 13:00:29;;;;;;;3.33;2.20;;;26.30;45.50;;;;;;5018540;28;20025;-85